This is the latest recevied weather packets stored in our database for station/object JE9BHE-13. If no packets are shown the sender has not sent any weather packets the latest 10 day(s).
| Time | Temp. | Humidity | Pressure | Rain* | Wind** | Luminosity | Snow |
|---|---|---|---|---|---|---|---|
| 1777642387 | 13.33° C | 81% | 1001.7 hPa | 0 mm | - | - | - |
| 1777641669 | 13.33° C | 81% | 1001.1 hPa | 0 mm | - | - | - |
| 1777640046 | 13.33° C | 81% | 1001.2 hPa | 0 mm | - | - | - |
| 1777639867 | 13.33° C | 80% | 1001.1 hPa | 0 mm | - | - | - |
| 1777639147 | 13.33° C | 81% | 1001 hPa | 0 mm | - | - | - |
| 1777635907 | 12.78° C | 89% | 1001.7 hPa | 0 mm | - | - | - |
| 1777634827 | 13.33° C | 87% | 1001.8 hPa | 0 mm | - | - | - |
| 1777633746 | 13.33° C | 85% | 1001.4 hPa | 0 mm | - | - | - |
| 1777633207 | 13.33° C | 83% | 1001.2 hPa | 0 mm | - | - | - |
| 1777632846 | 13.33° C | 84% | 1001.3 hPa | 0 mm | - | - | - |
| 1777632667 | 13.33° C | 84% | 1001.2 hPa | 0 mm | - | - | - |
| 1777632487 | 13.33° C | 85% | 1001.4 hPa | 0 mm | - | - | - |
| 1777632127 | 13.33° C | 87% | 1001.4 hPa | 0 mm | - | - | - |
| 1777630867 | 13.33° C | 88% | 1001.2 hPa | 0 mm | - | - | - |
| 1777625827 | 15° C | 77% | 1000.5 hPa | 0 mm | - | - | - |
| 1777625646 | 15° C | 74% | 1000.8 hPa | 0 mm | - | - | - |
| 1777624928 | 14.44° C | 77% | 1001.1 hPa | 0 mm | - | - | - |
| 1777621506 | 13.89° C | 85% | 1000.8 hPa | 1.52 mm | - | - | - |
| 1777620426 | 14.44° C | 90% | 1000.7 hPa | 1.78 mm | - | - | - |
| 1777619887 | 14.44° C | 89% | 1000.2 hPa | 1.78 mm | - | - | - |
| 1777619706 | 14.44° C | 89% | 1000.7 hPa | 1.78 mm | - | - | - |
| 1777617367 | 16.11° C | 70% | 1000.1 hPa | 0 mm | - | - | - |
| 1777617007 | 16.67° C | 71% | 999.8 hPa | 0 mm | - | - | - |
| 1777616467 | 16.67° C | 72% | 999.5 hPa | 0 mm | - | - | - |
| 1777615926 | 16.67° C | 72% | 999.8 hPa | 0 mm | - | - | - |
* Rain latest hour (hover to see other rain measurements)
** Current wind speed in m/s (hover to see current wind gust speed)